Time;durP1;ratioP1;P1;durP2;ratioP2;P2;SDS_P1;SDS_P2;PMS_P1;PMS_P2;Temp;Humidity;BMP_temperature;BMP_pressure;BME280_temperature;BME280_humidity;BME280_pressure;Samples;Min_cycle;Max_cycle;Signal;HPM_P1;HPM_P2
2021/12/23 00:00:20;;;;;;;22.67;15.13;;;0.80;99.90;;;;;;5019182;28;20832;-82
2021/12/23 00:02:47;;;;;;;20.43;14.13;;;0.80;99.90;;;;;;5030232;28;20202;-84
2021/12/23 00:05:13;;;;;;;24.00;14.90;;;0.80;99.90;;;;;;5018851;28;20219;-85
2021/12/23 00:07:40;;;;;;;22.33;15.20;;;0.90;99.90;;;;;;5009205;28;20589;-81
2021/12/23 00:10:09;;;;;;;23.63;15.60;;;0.90;99.90;;;;;;5010274;28;20214;-81
2021/12/23 00:12:39;;;;;;;22.53;15.17;;;0.90;99.90;;;;;;5009195;28;20239;-81
2021/12/23 00:15:17;;;;;;;22.77;13.80;;;0.90;99.90;;;;;;5009671;28;20203;-83
2021/12/23 00:17:57;;;;;;;23.70;14.20;;;0.80;99.90;;;;;;5009160;28;20940;-82
2021/12/23 00:23:26;;;;;;;23.57;15.67;;;0.80;99.90;;;;;;5009500;28;20220;-83
2021/12/23 00:25:56;;;;;;;25.20;16.10;;;0.80;99.90;;;;;;5008867;28;20622;-82
2021/12/23 00:28:23;;;;;;;20.80;15.67;;;0.80;99.90;;;;;;5008545;28;20214;-83
2021/12/23 00:30:51;;;;;;;24.17;15.50;;;0.80;99.90;;;;;;5008925;28;20199;-83
2021/12/23 00:33:18;;;;;;;23.73;14.67;;;0.80;99.90;;;;;;5010069;28;20507;-83
2021/12/23 00:35:45;;;;;;;26.80;16.07;;;0.80;99.90;;;;;;5010141;28;20221;-83
2021/12/23 00:38:19;;;;;;;23.03;15.90;;;0.80;99.90;;;;;;5010385;28;20681;-83
2021/12/23 00:40:45;;;;;;;27.57;16.13;;;0.90;99.90;;;;;;5010963;28;20234;-84
2021/12/23 00:43:13;;;;;;;23.23;15.67;;;0.90;99.90;;;;;;5011053;28;20234;-84
2021/12/23 00:45:39;;;;;;;23.73;15.33;;;0.90;99.90;;;;;;5011241;28;20207;-84
2021/12/23 00:48:08;;;;;;;23.80;15.37;;;0.90;99.90;;;;;;5011158;28;20207;-83
2021/12/23 00:50:35;;;;;;;23.27;16.10;;;0.90;99.90;;;;;;5011233;28;20214;-83
2021/12/23 00:53:06;;;;;;;25.30;16.00;;;0.90;99.90;;;;;;5010958;28;20211;-82
2021/12/23 00:55:33;;;;;;;24.20;15.23;;;0.90;99.90;;;;;;5010506;28;20207;-82
2021/12/23 00:58:00;;;;;;;19.67;14.77;;;0.90;99.90;;;;;;5010097;28;20218;-82
2021/12/23 01:00:28;;;;;;;24.93;15.93;;;1.00;99.90;;;;;;5010496;28;20294;-84
2021/12/23 01:02:58;;;;;;;21.87;14.47;;;1.00;99.90;;;;;;5010406;28;20206;-83
2021/12/23 01:05:27;;;;;;;21.87;15.20;;;1.00;99.90;;;;;;5018318;28;20199;-84
2021/12/23 01:07:54;;;;;;;24.33;15.77;;;1.00;99.90;;;;;;5030628;28;20521;-82
2021/12/23 01:10:23;;;;;;;25.03;15.87;;;1.00;99.90;;;;;;5023983;28;20211;-83
2021/12/23 01:12:54;;;;;;;23.00;15.70;;;1.00;99.90;;;;;;5008417;28;20744;-85
2021/12/23 01:15:40;;;;;;;25.00;16.50;;;1.00;99.90;;;;;;5010658;28;20213;-81
2021/12/23 01:18:12;;;;;;;22.67;16.07;;;1.00;99.90;;;;;;5028218;28;20288;-80
2021/12/23 01:20:51;;;;;;;22.97;15.30;;;1.00;99.90;;;;;;5027398;28;20248;-82
2021/12/23 01:23:19;;;;;;;23.47;15.67;;;1.00;99.90;;;;;;5010916;28;20207;-82
2021/12/23 01:25:46;;;;;;;23.80;15.20;;;1.00;99.90;;;;;;5008285;28;20290;-83
2021/12/23 01:28:13;;;;;;;19.53;14.77;;;1.00;99.90;;;;;;5008715;28;20246;-81
2021/12/23 01:30:40;;;;;;;24.70;16.00;;;1.00;99.90;;;;;;5008293;28;20231;-80
2021/12/23 01:33:08;;;;;;;25.93;16.20;;;1.00;99.90;;;;;;5009047;28;20772;-81
2021/12/23 01:35:36;;;;;;;20.83;15.33;;;1.00;99.90;;;;;;5008316;28;20206;-82
2021/12/23 01:38:04;;;;;;;21.70;15.07;;;1.00;99.90;;;;;;5008583;28;20492;-81
2021/12/23 01:40:32;;;;;;;25.87;16.53;;;1.00;99.90;;;;;;5008812;28;20227;-82
2021/12/23 01:42:59;;;;;;;24.50;15.33;;;1.00;99.90;;;;;;5009528;28;20227;-81
2021/12/23 01:45:31;;;;;;;23.50;15.97;;;1.00;99.90;;;;;;5019145;28;20631;-84
2021/12/23 01:47:59;;;;;;;24.87;15.83;;;1.00;99.90;;;;;;5018722;28;20218;-83
2021/12/23 01:50:29;;;;;;;21.97;15.53;;;1.00;99.90;;;;;;5009148;28;20195;-82
2021/12/23 01:52:56;;;;;;;28.77;18.03;;;1.00;99.90;;;;;;5008919;28;20203;-85
2021/12/23 01:55:24;;;;;;;24.20;15.47;;;1.00;99.90;;;;;;5008961;28;20206;-82
2021/12/23 01:57:52;;;;;;;25.90;15.80;;;1.00;99.90;;;;;;5009091;28;20203;-81
2021/12/23 02:00:22;;;;;;;22.10;15.50;;;1.00;99.90;;;;;;5008872;28;20274;-81
2021/12/23 02:02:51;;;;;;;21.53;15.33;;;1.10;99.90;;;;;;5009961;28;20200;-82
2021/12/23 02:05:18;;;;;;;22.13;16.10;;;1.00;99.90;;;;;;5009635;28;20199;-82
2021/12/23 02:07:45;;;;;;;23.73;15.00;;;1.00;99.90;;;;;;5010061;28;20214;-84
2021/12/23 02:10:12;;;;;;;23.50;15.60;;;1.00;99.90;;;;;;5009112;28;20215;-84
2021/12/23 02:12:42;;;;;;;22.37;15.77;;;1.00;99.90;;;;;;5010135;28;20210;-83
2021/12/23 02:15:09;;;;;;;20.80;15.13;;;1.00;99.90;;;;;;5009094;28;20211;-84
2021/12/23 02:17:37;;;;;;;25.37;16.47;;;1.00;99.90;;;;;;5009917;28;20603;-83
2021/12/23 02:20:08;;;;;;;22.13;15.23;;;1.00;99.90;;;;;;5010209;28;20580;-83
2021/12/23 02:22:35;;;;;;;24.03;16.10;;;1.00;99.90;;;;;;5013232;28;20218;-82
2021/12/23 02:25:01;;;;;;;22.70;16.10;;;1.00;99.90;;;;;;5014095;28;20199;-82
2021/12/23 02:27:28;;;;;;;23.50;15.67;;;1.00;99.90;;;;;;5033195;28;20876;-82
2021/12/23 02:29:55;;;;;;;25.83;17.13;;;1.00;99.90;;;;;;5034189;28;20201;-82
2021/12/23 02:32:22;;;;;;;23.60;16.47;;;1.10;99.90;;;;;;5033074;28;20198;-81
2021/12/23 02:34:49;;;;;;;21.57;16.00;;;1.00;99.90;;;;;;5033507;28;20210;-84
2021/12/23 02:37:17;;;;;;;25.90;15.87;;;1.00;99.90;;;;;;5026329;28;20199;-82
2021/12/23 02:39:44;;;;;;;24.77;16.43;;;1.00;99.90;;;;;;5013527;28;20199;-83
2021/12/23 02:42:11;;;;;;;23.17;15.47;;;1.10;99.90;;;;;;5023015;28;20230;-81
2021/12/23 02:44:38;;;;;;;23.50;15.30;;;1.10;99.90;;;;;;5032595;28;20607;-83
2021/12/23 02:47:06;;;;;;;27.20;16.07;;;1.10;99.90;;;;;;5029444;28;20195;-84
2021/12/23 02:49:33;;;;;;;24.90;15.03;;;1.00;99.90;;;;;;5030305;28;20292;-82
2021/12/23 02:52:00;;;;;;;27.63;17.43;;;1.10;99.90;;;;;;5032211;28;20190;-83
2021/12/23 02:54:29;;;;;;;25.80;15.67;;;1.10;99.90;;;;;;5032664;28;20533;-83
2021/12/23 02:56:55;;;;;;;27.27;16.63;;;1.00;99.90;;;;;;5027417;28;20558;-82
2021/12/23 02:59:22;;;;;;;23.43;14.90;;;1.00;99.90;;;;;;5012732;28;20628;-81
2021/12/23 03:01:49;;;;;;;24.97;16.67;;;1.00;99.90;;;;;;5012589;28;20214;-82
2021/12/23 03:04:16;;;;;;;25.77;16.17;;;1.10;99.90;;;;;;5013509;28;20226;-82
2021/12/23 03:06:42;;;;;;;22.77;15.33;;;1.00;99.90;;;;;;5012602;28;20211;-82
2021/12/23 03:09:09;;;;;;;23.17;14.70;;;1.00;99.90;;;;;;5013218;28;20202;-83
2021/12/23 03:11:40;;;;;;;25.47;16.90;;;1.00;99.90;;;;;;5022338;28;20213;-82
2021/12/23 03:14:08;;;;;;;23.33;16.00;;;1.10;99.90;;;;;;5032848;28;20206;-85
2021/12/23 03:16:38;;;;;;;24.47;15.90;;;1.10;99.90;;;;;;5032008;28;20603;-85
2021/12/23 03:19:06;;;;;;;22.53;15.47;;;1.10;99.90;;;;;;5032178;28;20221;-85
2021/12/23 03:21:34;;;;;;;24.17;17.07;;;1.10;99.90;;;;;;5031360;28;20802;-82
2021/12/23 03:24:01;;;;;;;25.17;17.40;;;1.10;99.90;;;;;;5012783;28;20982;-81
2021/12/23 03:26:28;;;;;;;26.10;17.13;;;1.10;99.90;;;;;;5012435;28;20242;-81
2021/12/23 03:28:56;;;;;;;23.27;16.57;;;1.10;99.90;;;;;;5014135;28;20210;-81
2021/12/23 03:31:23;;;;;;;24.47;15.90;;;1.10;99.90;;;;;;5011819;28;20622;-83
2021/12/23 03:33:50;;;;;;;30.50;18.33;;;1.10;99.90;;;;;;5027144;28;20214;-83
2021/12/23 03:36:17;;;;;;;30.60;18.10;;;1.00;99.90;;;;;;5032862;28;20202;-86
2021/12/23 03:38:44;;;;;;;30.20;20.57;;;1.00;99.90;;;;;;5029984;28;20202;-86
2021/12/23 03:41:11;;;;;;;28.27;19.17;;;1.10;99.90;;;;;;5012044;28;20651;-83
2021/12/23 03:43:37;;;;;;;28.00;18.60;;;1.00;99.90;;;;;;5015336;28;20570;-85
2021/12/23 03:46:06;;;;;;;33.87;20.13;;;1.00;99.90;;;;;;5032007;28;20207;-84
2021/12/23 03:48:32;;;;;;;30.37;20.00;;;1.00;99.90;;;;;;5019445;28;20215;-81
2021/12/23 03:50:59;;;;;;;36.60;23.73;;;1.00;99.90;;;;;;5012240;28;20199;-84
2021/12/23 03:53:26;;;;;;;41.33;22.83;;;1.00;99.90;;;;;;5012144;28;20207;-84
2021/12/23 03:55:53;;;;;;;35.20;22.90;;;1.00;99.90;;;;;;5012061;28;20211;-86
2021/12/23 03:58:20;;;;;;;43.33;26.30;;;1.00;99.90;;;;;;5012672;28;20205;-86
2021/12/23 04:00:48;;;;;;;47.53;25.20;;;1.00;99.90;;;;;;5014477;28;20932;-86
2021/12/23 04:03:16;;;;;;;40.23;25.87;;;1.00;99.90;;;;;;5032683;28;20222;-85
2021/12/23 04:05:43;;;;;;;45.40;27.53;;;1.00;99.90;;;;;;5025245;28;20209;-83
2021/12/23 04:08:10;;;;;;;45.90;29.13;;;1.00;99.90;;;;;;5012959;28;20207;-86
2021/12/23 04:10:38;;;;;;;46.23;27.87;;;1.00;99.90;;;;;;5012930;28;20764;-83
2021/12/23 04:13:05;;;;;;;44.47;27.33;;;1.00;99.90;;;;;;5012785;28;20234;-85
2021/12/23 04:15:32;;;;;;;49.00;29.73;;;1.00;99.90;;;;;;4995132;28;20258;-85
2021/12/23 04:17:59;;;;;;;44.57;27.57;;;1.00;99.90;;;;;;5013166;28;20207;-86
2021/12/23 04:20:34;;;;;;;53.27;32.17;;;1.00;99.90;;;;;;5007994;28;20582;-86
2021/12/23 04:23:00;;;;;;;51.93;30.43;;;1.00;99.90;;;;;;5010865;28;20710;-81
2021/12/23 04:25:29;;;;;;;50.40;30.00;;;1.00;99.90;;;;;;5009952;28;20211;-82
2021/12/23 04:27:58;;;;;;;57.77;33.80;;;1.00;99.90;;;;;;5009211;28;20246;-81
2021/12/23 04:30:25;;;;;;;55.70;35.03;;;1.00;99.90;;;;;;5010577;28;20261;-82
2021/12/23 04:32:53;;;;;;;55.67;33.33;;;1.00;99.90;;;;;;5011377;28;20207;-80
2021/12/23 04:35:23;;;;;;;63.23;34.37;;;1.00;99.90;;;;;;5031254;28;20233;-84
2021/12/23 04:37:52;;;;;;;56.37;33.00;;;1.00;99.90;;;;;;5026008;28;20207;-83
2021/12/23 04:40:19;;;;;;;62.33;34.77;;;1.00;99.90;;;;;;5013208;28;20328;-82
2021/12/23 04:42:46;;;;;;;59.87;36.50;;;1.00;99.90;;;;;;5011635;28;20278;-83
2021/12/23 04:45:14;;;;;;;60.10;34.03;;;1.00;99.90;;;;;;5012219;28;20881;-86
2021/12/23 04:47:41;;;;;;;62.40;36.10;;;1.00;99.90;;;;;;5011427;28;20230;-84
2021/12/23 04:50:10;;;;;;;62.77;36.17;;;1.00;99.90;;;;;;5011710;28;20945;-83
2021/12/23 04:52:38;;;;;;;64.27;36.50;;;1.00;99.90;;;;;;5011249;28;20206;-82
2021/12/23 04:55:08;;;;;;;66.83;38.47;;;1.00;99.90;;;;;;5011020;28;20195;-83
2021/12/23 04:57:35;;;;;;;73.67;37.90;;;1.10;99.90;;;;;;5010958;28;20215;-84
2021/12/23 05:00:03;;;;;;;78.97;39.33;;;1.00;99.90;;;;;;5011650;28;20226;-83
2021/12/23 05:02:30;;;;;;;68.53;39.63;;;1.10;99.90;;;;;;5010911;28;20219;-82
2021/12/23 05:04:57;;;;;;;74.13;40.50;;;1.10;99.90;;;;;;5011426;28;20192;-85
2021/12/23 05:07:23;;;;;;;77.07;40.80;;;1.00;99.90;;;;;;5011378;28;20538;-84
2021/12/23 05:09:50;;;;;;;76.20;40.20;;;1.00;99.90;;;;;;5011359;28;20203;-85
2021/12/23 05:12:18;;;;;;;76.60;39.47;;;1.00;99.90;;;;;;5011246;28;20199;-85
2021/12/23 05:14:45;;;;;;;74.30;40.07;;;1.00;99.90;;;;;;5012825;28;20200;-86
2021/12/23 05:17:12;;;;;;;74.00;39.13;;;1.00;99.90;;;;;;5031008;28;20194;-84
2021/12/23 05:19:38;;;;;;;73.90;39.37;;;1.00;99.90;;;;;;5031686;28;20206;-85
2021/12/23 05:22:06;;;;;;;79.37;41.10;;;1.00;99.90;;;;;;5012783;28;20239;-84
2021/12/23 05:24:33;;;;;;;79.90;42.70;;;1.00;99.90;;;;;;5010954;28;20489;-83
2021/12/23 05:26:59;;;;;;;82.60;43.93;;;1.00;99.90;;;;;;5012447;28;20238;-85
2021/12/23 05:29:28;;;;;;;78.13;42.57;;;1.00;99.90;;;;;;5010672;28;20199;-86
2021/12/23 05:31:55;;;;;;;76.87;44.07;;;1.00;99.90;;;;;;5011176;28;20299;-86
2021/12/23 05:34:21;;;;;;;86.13;44.57;;;1.10;99.90;;;;;;5011408;28;20203;-83
2021/12/23 05:36:48;;;;;;;84.13;44.90;;;1.10;99.90;;;;;;5011758;28;20203;-84
2021/12/23 05:39:15;;;;;;;85.17;44.57;;;1.10;99.90;;;;;;5022070;28;20194;-85
2021/12/23 05:41:42;;;;;;;84.20;43.87;;;1.10;99.90;;;;;;5031240;28;20249;-85
2021/12/23 05:44:09;;;;;;;86.20;44.97;;;1.00;99.90;;;;;;5030928;28;20207;-86
2021/12/23 05:46:37;;;;;;;87.00;44.13;;;1.10;99.90;;;;;;5014508;28;20589;-85
2021/12/23 05:49:04;;;;;;;89.63;46.30;;;1.10;99.90;;;;;;5011697;28;20246;-85
2021/12/23 05:51:31;;;;;;;82.07;43.73;;;1.10;99.90;;;;;;5010805;28;20205;-87
2021/12/23 05:53:58;;;;;;;80.33;43.67;;;1.10;99.90;;;;;;5025280;28;20211;-86
2021/12/23 05:56:25;;;;;;;83.97;44.47;;;1.10;99.90;;;;;;5027474;28;20209;-87
2021/12/23 05:58:52;;;;;;;85.37;46.00;;;1.10;99.90;;;;;;5029391;28;20206;-85
2021/12/23 06:01:22;;;;;;;88.50;45.60;;;1.10;99.90;;;;;;5018190;28;20614;-84
2021/12/23 06:03:50;;;;;;;86.90;45.73;;;1.10;99.90;;;;;;5010630;28;20202;-87
2021/12/23 06:06:19;;;;;;;91.30;46.70;;;1.10;99.90;;;;;;5010997;28;20202;-85
2021/12/23 06:08:46;;;;;;;97.27;47.40;;;1.10;99.90;;;;;;5010540;28;20219;-84
2021/12/23 06:11:13;;;;;;;85.97;48.27;;;1.10;99.90;;;;;;5011161;28;20294;-83
2021/12/23 06:13:41;;;;;;;92.67;47.87;;;1.10;99.90;;;;;;5010026;28;20540;-86
2021/12/23 06:16:09;;;;;;;92.63;47.90;;;1.10;99.90;;;;;;5011062;28;20187;-85
2021/12/23 06:18:36;;;;;;;90.53;45.80;;;1.10;99.90;;;;;;5012922;28;20218;-85
2021/12/23 06:21:05;;;;;;;91.13;46.90;;;1.10;99.90;;;;;;5013729;28;20282;-84
2021/12/23 06:23:32;;;;;;;90.43;45.97;;;1.10;99.90;;;;;;5014870;28;20215;-86
2021/12/23 06:25:59;;;;;;;86.30;45.70;;;1.10;99.90;;;;;;5015783;28;20314;-87
2021/12/23 06:28:27;;;;;;;92.77;47.97;;;1.20;99.90;;;;;;5015758;28;20619;-87
2021/12/23 06:30:54;;;;;;;88.03;45.80;;;1.20;99.90;;;;;;5012171;28;20204;-88
2021/12/23 06:33:21;;;;;;;90.77;44.93;;;1.20;99.90;;;;;;5009018;28;20202;-89
2021/12/23 06:35:47;;;;;;;91.10;46.47;;;1.20;99.90;;;;;;5008742;28;20198;-88
2021/12/23 06:38:15;;;;;;;83.73;44.40;;;1.20;99.90;;;;;;5008920;28;20626;-89
2021/12/23 06:40:42;;;;;;;87.47;44.83;;;1.20;99.90;;;;;;5009043;28;20607;-87
2021/12/23 06:43:10;;;;;;;95.90;46.53;;;1.20;99.90;;;;;;5010785;28;20235;-87
2021/12/23 06:45:37;;;;;;;84.70;43.90;;;1.20;99.90;;;;;;5023710;28;20206;-87
2021/12/23 06:48:05;;;;;;;87.40;42.57;;;1.20;99.90;;;;;;5013341;28;20211;-89
2021/12/23 06:50:32;;;;;;;93.73;45.13;;;1.20;99.90;;;;;;5011568;28;20642;-88
2021/12/23 06:52:59;;;;;;;96.97;46.07;;;1.20;99.90;;;;;;5011823;28;20191;-89
2021/12/23 06:55:27;;;;;;;95.87;45.97;;;1.20;99.90;;;;;;5010986;28;20680;-89
2021/12/23 06:57:56;;;;;;;94.63;45.07;;;1.20;99.90;;;;;;5011429;28;20219;-90
2021/12/23 07:00:25;;;;;;;94.57;46.70;;;1.20;99.90;;;;;;5011020;28;20314;-89
2021/12/23 07:02:52;;;;;;;89.37;44.27;;;1.20;99.90;;;;;;5011126;28;20230;-89
2021/12/23 07:05:19;;;;;;;85.33;42.47;;;1.20;99.90;;;;;;5018698;28;20285;-90
2021/12/23 07:07:55;;;;;;;87.97;43.60;;;1.20;99.90;;;;;;5033068;28;20599;-89
2021/12/23 07:10:25;;;;;;;102.00;47.13;;;1.20;99.90;;;;;;5033285;28;20230;-90
2021/12/23 07:12:55;;;;;;;92.20;44.23;;;1.20;99.90;;;;;;5034774;28;20198;-87
2021/12/23 07:15:23;;;;;;;87.90;43.83;;;1.20;99.90;;;;;;5034697;28;20780;-86
2021/12/23 07:17:50;;;;;;;87.67;42.77;;;1.20;99.90;;;;;;5033476;28;20213;-87
2021/12/23 07:20:18;;;;;;;91.27;42.37;;;1.20;99.90;;;;;;5034505;28;20195;-87
2021/12/23 07:22:45;;;;;;;91.20;41.67;;;1.20;99.90;;;;;;5033999;28;20713;-88
2021/12/23 07:25:13;;;;;;;89.87;43.30;;;1.20;99.90;;;;;;5031143;28;20215;-87
2021/12/23 07:27:40;;;;;;;94.50;43.20;;;1.20;99.90;;;;;;5011387;28;20259;-87
2021/12/23 07:30:13;;;;;;;87.33;42.70;;;1.20;99.90;;;;;;5014199;28;20213;-89
2021/12/23 07:32:40;;;;;;;85.57;42.60;;;1.20;99.90;;;;;;5015668;28;20199;-86
2021/12/23 07:35:08;;;;;;;89.83;43.27;;;1.20;99.90;;;;;;5015328;28;20203;-86
2021/12/23 07:37:36;;;;;;;92.43;44.90;;;1.20;99.90;;;;;;5014231;28;20574;-87
2021/12/23 07:40:04;;;;;;;95.23;43.63;;;1.20;99.90;;;;;;5014268;28;20226;-85
2021/12/23 07:42:32;;;;;;;85.30;41.10;;;1.30;99.90;;;;;;5022737;22;20231;-84
2021/12/23 07:45:01;;;;;;;90.30;40.13;;;1.30;99.90;;;;;;5032701;28;20570;-88
2021/12/23 07:47:31;;;;;;;85.00;42.23;;;1.20;99.90;;;;;;5033615;28;20215;-87
2021/12/23 07:49:58;;;;;;;93.03;43.83;;;1.20;99.90;;;;;;5018672;28;20308;-86
2021/12/23 07:52:25;;;;;;;94.23;43.80;;;1.30;99.90;;;;;;5013413;28;20644;-88
2021/12/23 07:54:52;;;;;;;88.40;41.67;;;1.30;99.90;;;;;;5013578;28;20203;-88
2021/12/23 07:57:19;;;;;;;86.00;40.77;;;1.30;99.90;;;;;;5013749;28;20214;-87
2021/12/23 07:59:46;;;;;;;94.17;41.43;;;1.30;99.90;;;;;;5013843;28;20528;-87
2021/12/23 08:02:13;;;;;;;85.60;40.70;;;1.30;99.90;;;;;;5012122;28;20231;-89
2021/12/23 08:04:42;;;;;;;94.03;39.90;;;1.30;99.90;;;;;;5012767;28;20580;-85
2021/12/23 08:07:08;;;;;;;89.73;42.93;;;1.30;99.90;;;;;;5013299;28;20270;-87
2021/12/23 08:09:49;;;;;;;90.63;41.60;;;1.30;99.90;;;;;;5004209;28;20210;-87
2021/12/23 08:12:18;;;;;;;85.10;39.33;;;1.30;99.90;;;;;;4982604;28;20567;-86
2021/12/23 08:14:45;;;;;;;92.77;41.63;;;1.30;99.90;;;;;;5013255;28;20199;-85
2021/12/23 08:17:11;;;;;;;86.93;40.00;;;1.30;99.90;;;;;;5013794;28;20230;-90
2021/12/23 08:19:38;;;;;;;75.43;37.13;;;1.30;99.90;;;;;;5013080;28;20207;-88
2021/12/23 08:22:07;;;;;;;88.37;39.50;;;1.40;99.90;;;;;;5012868;28;20227;-89
2021/12/23 08:24:34;;;;;;;85.73;39.77;;;1.30;99.90;;;;;;5026238;28;20666;-87
2021/12/23 08:27:01;;;;;;;89.00;38.53;;;1.30;99.90;;;;;;5032631;28;20297;-88
2021/12/23 08:29:28;;;;;;;82.27;38.67;;;1.30;99.90;;;;;;5033007;28;20234;-85
2021/12/23 08:31:55;;;;;;;92.60;39.87;;;1.40;99.90;;;;;;5032780;28;20210;-87
2021/12/23 08:34:22;;;;;;;86.43;41.00;;;1.40;99.90;;;;;;5032722;28;20931;-88
2021/12/23 08:36:50;;;;;;;85.97;38.20;;;1.40;99.90;;;;;;5032530;28;20203;-86
2021/12/23 08:39:19;;;;;;;86.93;38.47;;;1.40;99.90;;;;;;5032082;28;20207;-86
2021/12/23 08:41:46;;;;;;;93.63;39.77;;;1.40;99.90;;;;;;5032938;28;20268;-86
2021/12/23 08:44:13;;;;;;;84.80;38.57;;;1.40;99.90;;;;;;5032343;28;20246;-86
2021/12/23 08:46:40;;;;;;;83.63;37.47;;;1.40;99.90;;;;;;5021654;28;20214;-86
2021/12/23 08:49:07;;;;;;;83.97;39.00;;;1.40;99.90;;;;;;5012506;28;20203;-84
2021/12/23 08:51:36;;;;;;;90.13;41.10;;;1.40;99.90;;;;;;5011820;28;20207;-85
2021/12/23 08:54:03;;;;;;;82.13;37.23;;;1.40;99.90;;;;;;5012146;28;20627;-86
2021/12/23 08:56:32;;;;;;;83.93;38.03;;;1.50;99.90;;;;;;5012459;28;20203;-86
2021/12/23 08:58:58;;;;;;;89.73;38.67;;;1.50;99.90;;;;;;5011722;28;20211;-85
2021/12/23 09:01:25;;;;;;;81.37;38.17;;;1.40;99.90;;;;;;5008543;28;20218;-84
2021/12/23 09:03:52;;;;;;;77.40;37.63;;;1.40;99.90;;;;;;5011237;28;20227;-87
2021/12/23 09:06:19;;;;;;;85.17;37.70;;;1.40;99.90;;;;;;5010681;28;20269;-83
2021/12/23 09:08:46;;;;;;;85.40;38.43;;;1.50;99.90;;;;;;5010541;28;20227;-83
2021/12/23 09:11:13;;;;;;;84.50;37.57;;;1.50;99.90;;;;;;5011229;28;20211;-83
2021/12/23 09:13:41;;;;;;;80.63;36.50;;;1.50;99.90;;;;;;5010869;28;20200;-83
2021/12/23 09:16:08;;;;;;;86.37;39.13;;;1.50;99.90;;;;;;5010559;28;20626;-84
2021/12/23 09:18:35;;;;;;;81.17;37.17;;;1.40;99.90;;;;;;5010982;28;20206;-84
2021/12/23 09:21:03;;;;;;;81.93;36.77;;;1.40;99.90;;;;;;5010896;28;20218;-84
2021/12/23 09:23:29;;;;;;;80.87;35.80;;;1.50;99.90;;;;;;5010581;28;20882;-84
2021/12/23 09:25:56;;;;;;;81.97;39.07;;;1.50;99.90;;;;;;5011029;28;20195;-84
2021/12/23 09:28:33;;;;;;;77.63;37.57;;;1.50;99.90;;;;;;5011681;28;20208;-85
2021/12/23 09:33:46;;;;;;;75.67;36.47;;;1.50;99.90;;;;;;5010270;28;20210;-83
2021/12/23 09:36:14;;;;;;;76.20;37.17;;;1.60;99.90;;;;;;5008639;28;20207;-84
2021/12/23 09:38:42;;;;;;;84.00;40.50;;;1.60;99.90;;;;;;5009459;28;20203;-83
2021/12/23 09:41:12;;;;;;;82.43;36.90;;;1.60;99.90;;;;;;5010147;28;20232;-82
2021/12/23 09:43:41;;;;;;;74.27;36.30;;;1.60;99.90;;;;;;5009536;28;20234;-84
2021/12/23 09:46:13;;;;;;;79.33;36.13;;;1.60;99.90;;;;;;5017627;28;20595;-85
2021/12/23 09:48:42;;;;;;;81.63;37.67;;;1.60;99.90;;;;;;5029963;28;20213;-84
2021/12/23 09:51:10;;;;;;;83.77;39.87;;;1.60;99.90;;;;;;5029241;28;20242;-84
2021/12/23 09:53:40;;;;;;;82.53;39.10;;;1.60;99.90;;;;;;5019656;28;20204;-83
2021/12/23 09:56:07;;;;;;;81.33;38.23;;;1.60;99.90;;;;;;5010469;28;20203;-84
2021/12/23 09:58:34;;;;;;;83.83;37.73;;;1.70;99.90;;;;;;5009858;28;20207;-83
2021/12/23 10:01:02;;;;;;;77.90;37.50;;;1.70;99.90;;;;;;5009966;28;20211;-82
2021/12/23 10:03:31;;;;;;;81.93;38.73;;;1.70;99.90;;;;;;5008739;28;20281;-83
2021/12/23 10:05:59;;;;;;;80.53;36.77;;;1.70;99.90;;;;;;5008430;28;20238;-81
2021/12/23 10:08:27;;;;;;;81.63;36.00;;;1.80;99.90;;;;;;5007824;28;20215;-81
2021/12/23 10:10:58;;;;;;;81.90;38.53;;;1.70;99.90;;;;;;5007833;28;20269;-82
2021/12/23 10:30:21;;;;;;;78.40;38.77;;;1.80;99.90;;;;;;5028139;28;20256;-82
2021/12/23 10:38:27;;;;;;;75.13;35.27;;;1.80;99.90;;;;;;5029875;28;20306;-84
2021/12/23 10:40:57;;;;;;;78.57;36.43;;;1.90;99.90;;;;;;5029241;28;20694;-84
2021/12/23 10:43:27;;;;;;;76.70;36.33;;;1.90;99.90;;;;;;5016037;28;20239;-82
2021/12/23 10:45:58;;;;;;;75.67;38.00;;;1.90;99.90;;;;;;5012997;28;20199;-81
2021/12/23 10:48:27;;;;;;;84.80;38.20;;;1.80;99.90;;;;;;5011522;28;20214;-82
2021/12/23 10:51:03;;;;;;;82.57;37.20;;;1.80;99.90;;;;;;5011611;28;20207;-81
2021/12/23 10:53:55;;;;;;;80.47;36.40;;;1.90;99.90;;;;;;5010317;28;20792;-78
2021/12/23 10:59:12;;;;;;;78.93;35.43;;;1.90;99.90;;;;;;5011700;28;20206;-83
2021/12/23 11:02:07;;;;;;;73.13;36.73;;;2.00;99.90;;;;;;5011550;28;20263;-83
2021/12/23 11:04:59;;;;;;;69.60;33.70;;;2.00;99.90;;;;;;5012368;28;20532;-85
2021/12/23 11:07:39;;;;;;;72.27;33.93;;;2.10;99.90;;;;;;5013181;28;20305;-84
2021/12/23 11:10:17;;;;;;;79.67;36.73;;;2.10;99.90;;;;;;5013317;28;20195;-84
2021/12/23 11:30:20;;;;;;;59.60;31.07;;;2.40;99.90;;;;;;5025324;28;20263;-84
2021/12/23 11:35:48;;;;;;;71.43;33.13;;;2.50;99.90;;;;;;5032292;28;20219;-84
2021/12/23 11:38:22;;;;;;;69.77;34.17;;;2.50;99.90;;;;;;5021250;28;20219;-81
2021/12/23 11:40:58;;;;;;;66.60;32.73;;;2.50;99.90;;;;;;5010903;28;20296;-81
2021/12/23 11:46:09;;;;;;;72.97;34.03;;;2.50;99.90;;;;;;5027778;28;20202;-80
2021/12/23 11:48:41;;;;;;;71.80;35.47;;;2.60;99.90;;;;;;5029882;28;20203;-83
2021/12/23 11:51:15;;;;;;;71.20;34.50;;;2.60;99.90;;;;;;5026100;28;20297;-81
2021/12/23 11:53:42;;;;;;;69.03;33.23;;;2.60;99.90;;;;;;5009317;28;20207;-83
2021/12/23 11:56:13;;;;;;;70.20;34.40;;;2.70;99.90;;;;;;5009917;28;20199;-81
2021/12/23 11:58:43;;;;;;;69.90;33.83;;;2.70;99.90;;;;;;5009267;28;20242;-81
2021/12/23 12:01:14;;;;;;;67.93;35.00;;;2.70;99.90;;;;;;5010654;28;20213;-83
2021/12/23 12:03:55;;;;;;;69.73;32.77;;;2.80;99.90;;;;;;5010255;28;20231;-84
2021/12/23 12:06:24;;;;;;;60.37;31.23;;;2.80;99.90;;;;;;5010195;28;20264;-84
2021/12/23 12:08:54;;;;;;;62.87;33.27;;;2.90;99.90;;;;;;5026856;28;20211;-85
2021/12/23 12:11:24;;;;;;;69.63;34.70;;;2.90;99.90;;;;;;5027906;28;20296;-84
2021/12/23 12:13:51;;;;;;;72.73;35.10;;;2.90;99.90;;;;;;5029055;28;20515;-81
2021/12/23 12:16:31;;;;;;;59.73;31.97;;;3.00;99.90;;;;;;5013049;28;20206;-85
2021/12/23 12:18:58;;;;;;;63.97;32.47;;;3.00;99.90;;;;;;5012146;28;20199;-85
2021/12/23 12:21:28;;;;;;;64.77;33.73;;;3.00;99.90;;;;;;5013041;28;20214;-86
2021/12/23 12:24:22;;;;;;;70.87;34.23;;;3.10;99.90;;;;;;5030607;28;20236;-87
2021/12/23 12:26:57;;;;;;;66.93;32.37;;;3.20;99.90;;;;;;4996916;28;20213;-84
2021/12/23 12:29:33;;;;;;;67.67;35.20;;;3.30;99.90;;;;;;5031575;28;20269;-85
2021/12/23 12:32:00;;;;;;;70.47;34.43;;;3.30;99.90;;;;;;5025500;28;20222;-86
2021/12/23 12:34:33;;;;;;;63.47;32.10;;;3.40;99.90;;;;;;5012654;28;20199;-84
2021/12/23 12:36:59;;;;;;;61.27;31.67;;;3.40;99.90;;;;;;5025267;28;20198;-87
2021/12/23 12:39:31;;;;;;;65.57;32.50;;;3.50;99.90;;;;;;5029274;28;20206;-87
2021/12/23 12:42:04;;;;;;;63.37;35.30;;;3.60;99.90;;;;;;5012278;28;20227;-85
2021/12/23 12:44:53;;;;;;;65.83;33.07;;;3.80;99.90;;;;;;5015705;28;20230;-84
2021/12/23 12:47:25;;;;;;;70.13;34.03;;;3.90;99.90;;;;;;5031569;28;20565;-86
2021/12/23 12:50:05;;;;;;;62.33;32.87;;;3.90;99.90;;;;;;5030703;28;20838;-84
2021/12/23 12:52:33;;;;;;;65.30;33.90;;;4.00;99.90;;;;;;5031189;28;20202;-81
2021/12/23 12:55:04;;;;;;;66.63;33.23;;;4.10;99.90;;;;;;5016837;28;20207;-88
2021/12/23 12:57:37;;;;;;;62.40;32.93;;;4.20;99.90;;;;;;5010544;28;20203;-84
2021/12/23 13:00:26;;;;;;;66.03;35.00;;;4.30;99.90;;;;;;5011540;28;20265;-85
2021/12/23 13:02:55;;;;;;;64.33;33.53;;;4.30;99.90;;;;;;4999278;28;20223;-79
2021/12/23 13:05:39;;;;;;;67.17;34.53;;;4.30;99.90;;;;;;5010227;28;20234;-84
2021/12/23 13:08:19;;;;;;;72.27;34.40;;;4.40;99.90;;;;;;5009946;28;20194;-81
2021/12/23 13:10:49;;;;;;;69.83;36.73;;;4.50;99.90;;;;;;5010825;28;20207;-85
2021/12/23 13:13:32;;;;;;;72.73;36.27;;;4.50;99.90;;;;;;5010052;28;20199;-83
2021/12/23 13:16:00;;;;;;;65.60;34.97;;;4.60;99.90;;;;;;5009291;28;20212;-85
2021/12/23 13:18:27;;;;;;;64.30;37.03;;;4.60;99.90;;;;;;5010059;28;20211;-83
2021/12/23 13:20:56;;;;;;;74.90;35.63;;;4.70;99.90;;;;;;5011486;28;20210;-81
2021/12/23 13:23:29;;;;;;;69.17;35.53;;;4.70;99.90;;;;;;5010068;28;20611;-84
2021/12/23 13:25:58;;;;;;;62.43;34.97;;;4.80;99.90;;;;;;5008897;28;20214;-82
2021/12/23 13:28:29;;;;;;;79.50;41.63;;;4.80;99.90;;;;;;5008136;28;20203;-82
2021/12/23 13:30:58;;;;;;;80.17;39.30;;;4.80;99.90;;;;;;5011366;28;20207;-82
2021/12/23 13:33:25;;;;;;;70.20;40.47;;;4.90;99.90;;;;;;5015486;28;20211;-82
2021/12/23 13:35:54;;;;;;;78.93;40.20;;;4.90;99.90;;;;;;5008400;28;20209;-81
2021/12/23 13:38:32;;;;;;;72.20;41.20;;;5.00;99.90;;;;;;5009017;28;20210;-82